Time;durP1;ratioP1;P1;durP2;ratioP2;P2;SDS_P1;SDS_P2;PMS_P1;PMS_P2;Temp;Humidity;BMP_temperature;BMP_pressure;BME280_temperature;BME280_humidity;BME280_pressure;Samples;Min_cycle;Max_cycle;Signal;HPM_P1;HPM_P2
2021/01/18 00:01:22;;;;;;;8.83;2.27;;;5.70;99.90;;;;;;5027141;28;20209;-89
2021/01/18 00:03:49;;;;;;;14.77;5.17;;;5.80;99.90;;;;;;5027598;28;20264;-88
2021/01/18 00:06:16;;;;;;;12.63;2.90;;;5.80;99.90;;;;;;5029140;28;20253;-90
2021/01/18 00:08:43;;;;;;;11.40;2.80;;;5.90;99.90;;;;;;5028675;28;20227;-89
2021/01/18 00:11:10;;;;;;;11.03;2.77;;;5.90;99.90;;;;;;5029057;28;20230;-88
2021/01/18 00:13:36;;;;;;;18.97;3.47;;;5.90;99.90;;;;;;5028993;28;20213;-88
2021/01/18 00:16:03;;;;;;;12.30;3.17;;;5.80;99.90;;;;;;5030394;28;20207;-88
2021/01/18 00:18:31;;;;;;;16.70;3.30;;;5.80;99.90;;;;;;5028724;28;20290;-88
2021/01/18 00:20:57;;;;;;;15.93;3.93;;;5.80;99.90;;;;;;5028888;28;20271;-88
2021/01/18 00:23:24;;;;;;;11.57;3.63;;;5.80;99.90;;;;;;5031217;28;20198;-89
2021/01/18 00:25:50;;;;;;;12.30;3.40;;;5.80;99.90;;;;;;5029628;28;20191;-88
2021/01/18 00:28:16;;;;;;;14.03;4.23;;;5.80;99.90;;;;;;5028771;28;20226;-89
2021/01/18 00:30:43;;;;;;;15.67;3.80;;;5.90;99.90;;;;;;5030257;28;20202;-88
2021/01/18 00:33:09;;;;;;;10.53;2.90;;;5.90;99.90;;;;;;5030913;28;20350;-88
2021/01/18 00:35:36;;;;;;;17.33;3.00;;;6.00;99.90;;;;;;5028859;28;20213;-78
2021/01/18 00:38:03;;;;;;;10.73;3.30;;;6.00;99.90;;;;;;5030282;28;20261;-88
2021/01/18 00:40:29;;;;;;;16.07;5.50;;;6.00;99.90;;;;;;5029784;28;20269;-85
2021/01/18 00:42:55;;;;;;;13.13;3.27;;;6.00;99.90;;;;;;5029482;28;20619;-89
2021/01/18 00:45:23;;;;;;;11.43;4.03;;;6.10;99.90;;;;;;5028211;28;20194;-83
2021/01/18 00:47:51;;;;;;;18.27;3.80;;;6.10;99.90;;;;;;5028817;28;20226;-88
2021/01/18 00:50:19;;;;;;;18.10;4.03;;;6.20;99.90;;;;;;5028960;28;20249;-85
2021/01/18 00:52:48;;;;;;;18.83;3.70;;;6.20;99.90;;;;;;5028272;28;20888;-84
2021/01/18 00:55:16;;;;;;;12.13;4.00;;;6.20;99.90;;;;;;5027613;28;20277;-81
2021/01/18 00:57:43;;;;;;;14.40;3.80;;;6.30;99.90;;;;;;5027943;28;20767;-86
2021/01/18 01:00:11;;;;;;;11.77;3.30;;;6.30;99.90;;;;;;5029450;28;20206;-86
2021/01/18 01:02:39;;;;;;;13.63;3.87;;;6.30;99.90;;;;;;5027551;28;20198;-88
2021/01/18 01:05:07;;;;;;;16.73;4.40;;;6.30;99.90;;;;;;5028707;28;20226;-82
2021/01/18 01:07:37;;;;;;;13.27;4.50;;;6.30;99.90;;;;;;5022932;28;20226;-86
2021/01/18 01:10:06;;;;;;;15.83;4.70;;;6.30;99.90;;;;;;5023040;28;20800;-86
2021/01/18 01:12:32;;;;;;;17.13;3.80;;;6.30;99.90;;;;;;5026048;28;20210;-86
2021/01/18 01:14:58;;;;;;;12.87;3.70;;;6.30;99.90;;;;;;5006102;28;20211;-84
2021/01/18 01:17:25;;;;;;;15.40;3.43;;;6.30;99.90;;;;;;5004524;28;20789;-86
2021/01/18 01:19:51;;;;;;;12.63;3.43;;;6.30;99.90;;;;;;5003551;28;20207;-88
2021/01/18 01:22:17;;;;;;;14.53;3.83;;;6.30;99.90;;;;;;5003911;28;20196;-86
2021/01/18 01:24:44;;;;;;;15.07;3.90;;;6.30;99.90;;;;;;5010142;28;20203;-87
2021/01/18 01:27:11;;;;;;;10.80;3.17;;;6.30;99.90;;;;;;5010737;28;20227;-87
2021/01/18 01:29:37;;;;;;;12.47;3.17;;;6.30;99.90;;;;;;5010189;28;20204;-87
2021/01/18 01:32:04;;;;;;;12.90;3.13;;;6.20;99.90;;;;;;5010563;28;20200;-88
2021/01/18 01:34:30;;;;;;;18.57;4.70;;;6.10;99.90;;;;;;5010245;28;20612;-88
2021/01/18 01:36:56;;;;;;;13.37;3.20;;;6.10;99.90;;;;;;5008636;28;20210;-85
2021/01/18 01:39:23;;;;;;;17.73;4.00;;;6.00;99.90;;;;;;5010028;28;20604;-87
2021/01/18 01:41:49;;;;;;;14.90;4.00;;;5.90;99.90;;;;;;5010073;28;20916;-88
2021/01/18 01:44:16;;;;;;;20.23;3.97;;;6.00;99.90;;;;;;5008692;28;20599;-88
2021/01/18 01:46:42;;;;;;;14.27;3.50;;;6.00;99.90;;;;;;5009669;28;20225;-88
2021/01/18 01:49:09;;;;;;;12.00;3.53;;;6.00;99.90;;;;;;5009993;28;20218;-87
2021/01/18 01:51:37;;;;;;;16.80;3.97;;;5.90;99.90;;;;;;5008002;28;20203;-87
2021/01/18 01:54:04;;;;;;;18.27;5.47;;;6.00;99.90;;;;;;5009586;28;20199;-88
2021/01/18 01:56:30;;;;;;;14.53;3.77;;;6.00;99.90;;;;;;5012487;28;20331;-87
2021/01/18 01:58:56;;;;;;;14.43;3.47;;;6.00;99.90;;;;;;5011480;28;20211;-86
2021/01/18 02:01:24;;;;;;;15.63;3.93;;;5.90;99.90;;;;;;5012525;28;20576;-86
2021/01/18 02:03:51;;;;;;;16.80;4.40;;;5.90;99.90;;;;;;5013128;28;20214;-87
2021/01/18 02:06:19;;;;;;;15.57;4.20;;;5.90;99.90;;;;;;5012827;28;20210;-86
2021/01/18 02:08:45;;;;;;;17.63;3.10;;;6.00;99.90;;;;;;5010247;28;20251;-79
2021/01/18 02:11:12;;;;;;;18.47;3.43;;;6.00;99.90;;;;;;5012969;28;20223;-88
2021/01/18 02:13:49;;;;;;;13.20;3.70;;;5.90;99.90;;;;;;5012497;28;20214;-86
2021/01/18 02:16:23;;;;;;;16.73;3.80;;;5.90;99.90;;;;;;5011255;28;20756;-86
2021/01/18 02:19:25;;;;;;;25.43;5.93;;;5.80;99.90;;;;;;5010689;28;20199;-86
2021/01/18 02:22:40;;;;;;;18.00;4.90;;;5.90;99.90;;;;;;5010941;28;20494;-87
2021/01/18 02:25:20;;;;;;;14.90;4.43;;;5.90;99.90;;;;;;5010650;28;20207;-87
2021/01/18 02:28:24;;;;;;;19.17;4.20;;;5.90;99.90;;;;;;5011688;28;20634;-87
2021/01/18 02:31:25;;;;;;;14.10;4.43;;;5.90;99.90;;;;;;5010289;28;20207;-85
2021/01/18 02:34:15;;;;;;;19.67;4.67;;;5.80;99.90;;;;;;5010629;28;20278;-87
2021/01/18 02:36:56;;;;;;;20.43;4.80;;;5.80;99.90;;;;;;5010064;28;20195;-87
2021/01/18 02:39:41;;;;;;;21.00;5.50;;;5.80;99.90;;;;;;5011098;28;20639;-87
2021/01/18 02:42:11;;;;;;;18.60;4.57;;;5.80;99.90;;;;;;5010933;28;20218;-83
2021/01/18 02:44:39;;;;;;;18.07;4.87;;;5.70;99.90;;;;;;5009765;28;20499;-88
2021/01/18 02:47:09;;;;;;;14.67;4.67;;;5.70;99.90;;;;;;5010801;28;20242;-87
2021/01/18 02:49:36;;;;;;;21.17;4.97;;;5.70;99.90;;;;;;5009989;28;20251;-84
2021/01/18 02:52:08;;;;;;;15.17;4.90;;;5.70;99.90;;;;;;5008477;28;20972;-80
2021/01/18 02:54:34;;;;;;;22.40;5.70;;;5.80;99.90;;;;;;5008174;28;20294;-85
2021/01/18 02:57:04;;;;;;;14.20;5.07;;;5.90;99.90;;;;;;5010426;28;20218;-86
2021/01/18 02:59:31;;;;;;;31.23;6.63;;;6.00;99.90;;;;;;5008848;28;20203;-79
2021/01/18 03:02:12;;;;;;;24.57;6.83;;;6.00;99.90;;;;;;5009470;28;20211;-80
2021/01/18 03:05:17;;;;;;;20.43;6.10;;;6.00;99.90;;;;;;5010294;28;20603;-82
2021/01/18 03:07:53;;;;;;;21.27;5.30;;;6.00;99.90;;;;;;4985056;28;20226;-81
2021/01/18 03:10:26;;;;;;;23.97;6.07;;;6.00;99.90;;;;;;5008979;28;20250;-86
2021/01/18 03:13:00;;;;;;;23.13;5.80;;;6.00;99.90;;;;;;5010113;28;20329;-85
2021/01/18 03:15:30;;;;;;;29.07;7.97;;;5.90;99.90;;;;;;5008614;28;20208;-80
2021/01/18 03:18:01;;;;;;;23.17;6.13;;;6.00;99.90;;;;;;5008421;28;20195;-80
2021/01/18 03:20:28;;;;;;;24.77;5.97;;;6.00;99.90;;;;;;5010122;28;20679;-86
2021/01/18 03:23:01;;;;;;;21.87;6.47;;;6.00;99.90;;;;;;5009354;28;20208;-87
2021/01/18 03:25:28;;;;;;;20.30;6.40;;;6.00;99.90;;;;;;5008090;28;20230;-78
2021/01/18 03:27:57;;;;;;;19.30;6.40;;;6.10;99.90;;;;;;5008627;28;20231;-85
2021/01/18 03:30:24;;;;;;;21.33;6.80;;;6.00;99.90;;;;;;5008882;28;20546;-85
2021/01/18 03:32:52;;;;;;;28.37;6.93;;;6.00;99.90;;;;;;5009611;28;20191;-85
2021/01/18 03:35:19;;;;;;;23.43;5.80;;;6.10;99.90;;;;;;5017451;28;20214;-84
2021/01/18 03:37:52;;;;;;;20.03;7.23;;;6.10;99.90;;;;;;5028372;28;20218;-79
2021/01/18 03:40:20;;;;;;;19.77;6.03;;;6.10;99.90;;;;;;5028586;28;20206;-83
2021/01/18 03:42:52;;;;;;;21.03;5.90;;;6.10;99.90;;;;;;5028608;28;20198;-85
2021/01/18 03:45:19;;;;;;;26.17;5.93;;;6.20;99.90;;;;;;5027861;28;20268;-79
2021/01/18 03:47:45;;;;;;;20.13;6.30;;;6.20;99.90;;;;;;5027495;28;20329;-78
2021/01/18 03:50:12;;;;;;;30.43;6.17;;;6.20;99.90;;;;;;5028582;28;20226;-83
2021/01/18 03:52:39;;;;;;;22.20;6.47;;;6.30;99.90;;;;;;5029632;28;20199;-85
2021/01/18 03:55:06;;;;;;;25.90;5.97;;;6.30;99.90;;;;;;5029154;28;20207;-82
2021/01/18 03:57:33;;;;;;;26.87;6.23;;;6.30;99.90;;;;;;5027635;28;20212;-82
2021/01/18 03:59:59;;;;;;;20.03;4.90;;;6.30;99.90;;;;;;5028682;28;20202;-86
2021/01/18 04:02:26;;;;;;;24.80;6.07;;;6.30;99.90;;;;;;5028834;28;20202;-84
2021/01/18 04:04:52;;;;;;;20.00;5.43;;;6.50;99.90;;;;;;5028379;28;20199;-86
2021/01/18 04:07:18;;;;;;;24.73;6.00;;;6.50;99.90;;;;;;5029439;28;20242;-85
2021/01/18 04:09:44;;;;;;;26.83;7.20;;;6.50;99.90;;;;;;5028911;28;20234;-82
2021/01/18 04:12:11;;;;;;;15.50;4.47;;;6.60;99.90;;;;;;5028762;28;20209;-84
2021/01/18 04:14:38;;;;;;;21.73;5.43;;;6.50;99.90;;;;;;5029542;28;20210;-82
2021/01/18 04:17:04;;;;;;;18.03;4.73;;;6.40;99.90;;;;;;5028339;28;20201;-82
2021/01/18 04:19:31;;;;;;;17.33;4.87;;;6.40;99.90;;;;;;5026368;28;20190;-85
2021/01/18 04:21:58;;;;;;;26.07;6.60;;;6.40;99.90;;;;;;5027634;28;20923;-85
2021/01/18 04:24:24;;;;;;;24.07;6.33;;;6.40;99.90;;;;;;5025529;28;20603;-82
2021/01/18 04:26:50;;;;;;;26.63;6.50;;;6.40;99.90;;;;;;5026429;28;20209;-78
2021/01/18 04:29:17;;;;;;;19.83;5.97;;;6.40;99.90;;;;;;5027177;28;20199;-80
2021/01/18 04:31:44;;;;;;;30.93;7.80;;;6.40;99.90;;;;;;5027322;28;20206;-88
2021/01/18 04:34:10;;;;;;;26.47;8.17;;;6.40;99.90;;;;;;5027653;28;20203;-80
2021/01/18 04:36:38;;;;;;;28.00;6.43;;;6.40;99.90;;;;;;5027090;28;20203;-83
2021/01/18 04:39:06;;;;;;;24.33;5.97;;;6.40;99.90;;;;;;5027176;28;20234;-82
2021/01/18 04:41:34;;;;;;;26.83;7.67;;;6.40;99.90;;;;;;5026399;28;20217;-87
2021/01/18 04:44:01;;;;;;;28.33;7.50;;;6.40;99.90;;;;;;5027883;28;20186;-88
2021/01/18 04:46:29;;;;;;;23.20;6.30;;;6.40;99.90;;;;;;5026696;28;20213;-80
2021/01/18 04:48:59;;;;;;;21.50;6.07;;;6.50;99.90;;;;;;5026823;28;20229;-84
2021/01/18 04:51:25;;;;;;;23.17;5.60;;;6.40;99.90;;;;;;5027656;28;20234;-81
2021/01/18 04:53:56;;;;;;;20.03;6.13;;;6.50;99.90;;;;;;5026112;28;20210;-81
2021/01/18 04:56:44;;;;;;;24.47;6.10;;;6.50;99.90;;;;;;5026643;28;20595;-85
2021/01/18 04:59:17;;;;;;;20.17;4.77;;;6.40;99.90;;;;;;5026997;28;20237;-84
2021/01/18 05:01:46;;;;;;;20.57;5.57;;;6.40;99.90;;;;;;5026393;28;20203;-80
2021/01/18 05:04:26;;;;;;;17.13;5.13;;;6.50;99.90;;;;;;5027046;28;20203;-85
2021/01/18 05:06:59;;;;;;;19.07;5.53;;;6.40;99.90;;;;;;5025826;28;20202;-79
2021/01/18 05:09:29;;;;;;;20.60;4.60;;;6.40;99.90;;;;;;5026198;28;20249;-80
2021/01/18 05:11:57;;;;;;;19.30;4.57;;;6.40;99.90;;;;;;5027323;28;20203;-80
2021/01/18 05:14:23;;;;;;;22.93;5.70;;;6.40;99.90;;;;;;5011370;28;20203;-82
2021/01/18 05:16:56;;;;;;;22.60;5.20;;;6.50;99.90;;;;;;5006946;28;20208;-80
2021/01/18 05:19:25;;;;;;;19.13;4.93;;;6.50;99.90;;;;;;5007981;28;20199;-84
2021/01/18 05:21:52;;;;;;;27.93;5.57;;;6.50;99.90;;;;;;5005721;28;20938;-85
2021/01/18 05:24:20;;;;;;;24.40;5.30;;;6.60;99.90;;;;;;5007527;28;20203;-81
2021/01/18 05:27:04;;;;;;;20.60;4.93;;;6.60;99.90;;;;;;5006259;28;20212;-80
2021/01/18 05:29:32;;;;;;;20.90;4.13;;;6.70;99.90;;;;;;5005575;28;20207;-83
2021/01/18 05:31:58;;;;;;;22.60;4.67;;;6.60;99.90;;;;;;5008685;28;20538;-84
2021/01/18 05:34:28;;;;;;;17.20;5.10;;;6.50;99.90;;;;;;5010652;28;20588;-79
2021/01/18 05:36:55;;;;;;;26.57;5.30;;;6.60;99.90;;;;;;5010458;28;20234;-85
2021/01/18 05:39:23;;;;;;;23.33;5.60;;;6.70;99.90;;;;;;5011012;28;20199;-86
2021/01/18 05:41:50;;;;;;;24.87;5.77;;;6.70;99.90;;;;;;5011477;28;20207;-80
2021/01/18 05:44:17;;;;;;;22.97;5.23;;;6.70;99.90;;;;;;5009584;28;20494;-81
2021/01/18 05:46:45;;;;;;;27.37;5.70;;;6.70;99.90;;;;;;5008202;28;20211;-85
2021/01/18 05:49:14;;;;;;;25.87;5.20;;;6.70;99.90;;;;;;5008411;28;20230;-84
2021/01/18 05:51:42;;;;;;;15.63;4.33;;;6.70;99.90;;;;;;5010367;28;20214;-83
2021/01/18 05:54:12;;;;;;;18.13;4.73;;;6.70;99.90;;;;;;5009528;28;20230;-81
2021/01/18 05:56:44;;;;;;;22.87;6.13;;;6.70;99.90;;;;;;5010147;28;20203;-85
2021/01/18 05:59:17;;;;;;;22.83;5.30;;;6.60;99.90;;;;;;5012090;28;20242;-88
2021/01/18 06:01:43;;;;;;;23.37;5.17;;;6.60;99.90;;;;;;5008755;28;20728;-84
2021/01/18 06:04:11;;;;;;;23.77;5.17;;;6.60;99.90;;;;;;5006135;28;20203;-84
2021/01/18 06:06:38;;;;;;;19.37;4.47;;;6.60;99.90;;;;;;5008354;28;20204;-87
2021/01/18 06:09:05;;;;;;;17.97;4.73;;;6.60;99.90;;;;;;5008273;28;20246;-85
2021/01/18 06:11:32;;;;;;;22.30;4.90;;;6.60;99.90;;;;;;5008617;28;20204;-88
2021/01/18 06:14:03;;;;;;;16.43;4.93;;;6.60;99.90;;;;;;5019806;28;20202;-88
2021/01/18 06:16:31;;;;;;;19.60;5.83;;;6.70;99.90;;;;;;5030463;28;20214;-86
2021/01/18 06:19:07;;;;;;;27.67;5.97;;;6.60;99.90;;;;;;5030847;28;20599;-85
2021/01/18 06:21:41;;;;;;;23.20;5.67;;;6.60;99.90;;;;;;5030061;28;20203;-81
2021/01/18 06:24:20;;;;;;;18.90;4.90;;;6.60;99.90;;;;;;5027868;28;20210;-86
2021/01/18 06:26:47;;;;;;;26.13;5.23;;;6.60;99.90;;;;;;5026486;28;20249;-85
2021/01/18 06:29:35;;;;;;;20.60;4.17;;;6.60;99.90;;;;;;5026497;28;20905;-84
2021/01/18 06:32:01;;;;;;;18.43;4.87;;;6.60;99.90;;;;;;5030510;28;20195;-85
2021/01/18 06:34:28;;;;;;;17.77;4.33;;;6.60;99.90;;;;;;5032116;28;20198;-85
2021/01/18 06:36:56;;;;;;;21.10;4.93;;;6.60;99.90;;;;;;5032189;28;20206;-87
2021/01/18 06:39:26;;;;;;;22.73;4.47;;;6.60;99.90;;;;;;5032054;28;20202;-86
2021/01/18 06:42:00;;;;;;;18.60;5.07;;;6.60;99.90;;;;;;5030289;28;20672;-86
2021/01/18 06:44:37;;;;;;;15.47;4.63;;;6.60;99.90;;;;;;5032306;28;20209;-88
2021/01/18 06:47:26;;;;;;;20.73;5.47;;;6.60;99.90;;;;;;5031882;28;20235;-87
2021/01/18 06:49:54;;;;;;;14.43;4.83;;;6.70;99.90;;;;;;5032453;28;20274;-87
2021/01/18 06:52:27;;;;;;;19.50;4.37;;;6.70;99.90;;;;;;5031986;28;20210;-86
2021/01/18 06:55:05;;;;;;;21.33;4.93;;;6.70;99.90;;;;;;5030964;28;20500;-85
2021/01/18 06:57:57;;;;;;;17.93;4.60;;;6.70;99.90;;;;;;5031891;28;20218;-86
2021/01/18 07:00:25;;;;;;;23.27;5.17;;;6.70;99.90;;;;;;5031076;28;20277;-82
2021/01/18 07:02:56;;;;;;;24.03;5.53;;;6.70;99.90;;;;;;5031974;28;20203;-87
2021/01/18 07:05:36;;;;;;;21.27;4.70;;;6.70;99.90;;;;;;5031948;28;20280;-85
2021/01/18 07:08:14;;;;;;;16.30;4.60;;;6.80;99.90;;;;;;5031748;28;20223;-85
2021/01/18 07:10:45;;;;;;;24.00;4.73;;;6.80;99.90;;;;;;5030699;28;20241;-86
2021/01/18 07:13:12;;;;;;;23.77;4.73;;;6.70;99.90;;;;;;5030603;28;20320;-87
2021/01/18 07:15:40;;;;;;;18.60;4.90;;;6.80;99.90;;;;;;5030546;28;20195;-86
2021/01/18 07:18:09;;;;;;;17.07;3.13;;;6.80;99.90;;;;;;5031544;28;20199;-86
2021/01/18 07:20:40;;;;;;;21.83;5.13;;;6.80;99.90;;;;;;5030321;28;20199;-84
2021/01/18 07:23:31;;;;;;;18.60;4.17;;;6.80;99.90;;;;;;5029396;28;20218;-79
2021/01/18 07:26:31;;;;;;;17.60;4.10;;;6.80;99.90;;;;;;5030330;28;20202;-86
2021/01/18 07:29:03;;;;;;;15.00;4.33;;;6.80;99.90;;;;;;5029831;28;20680;-85
2021/01/18 07:31:30;;;;;;;18.20;3.43;;;6.80;99.90;;;;;;5029103;28;20249;-83
2021/01/18 07:33:57;;;;;;;19.10;4.53;;;6.80;99.90;;;;;;5031543;28;20206;-86
2021/01/18 07:36:25;;;;;;;20.10;4.20;;;6.80;99.90;;;;;;5029976;28;20252;-86
2021/01/18 07:38:51;;;;;;;15.47;4.30;;;6.80;99.90;;;;;;5031056;28;20202;-86
2021/01/18 07:41:20;;;;;;;22.33;5.10;;;6.80;99.90;;;;;;5031788;28;20213;-86
2021/01/18 07:43:48;;;;;;;17.73;5.57;;;6.80;99.90;;;;;;5029641;28;20194;-85
2021/01/18 07:46:37;;;;;;;19.40;4.90;;;6.80;99.90;;;;;;5030932;28;20320;-85
2021/01/18 07:49:43;;;;;;;19.03;5.40;;;6.80;99.90;;;;;;5030893;28;20218;-87
2021/01/18 07:52:30;;;;;;;16.67;4.03;;;6.80;99.90;;;;;;5030172;28;20195;-86
2021/01/18 07:55:00;;;;;;;16.80;4.67;;;6.80;99.90;;;;;;5029647;28;20202;-84
2021/01/18 07:57:39;;;;;;;13.80;3.93;;;6.80;99.90;;;;;;5030917;28;20195;-87
2021/01/18 08:00:31;;;;;;;20.67;5.27;;;6.80;99.90;;;;;;5029266;28;20206;-85
2021/01/18 08:03:27;;;;;;;15.90;4.70;;;6.80;99.90;;;;;;5029889;28;20257;-85
2021/01/18 08:06:15;;;;;;;21.17;6.03;;;6.80;99.90;;;;;;5030922;28;20202;-87
2021/01/18 08:08:42;;;;;;;23.13;7.13;;;6.80;99.90;;;;;;5029145;28;20233;-85
2021/01/18 08:11:17;;;;;;;25.90;6.70;;;6.70;99.90;;;;;;5028748;28;20238;-84
2021/01/18 08:13:54;;;;;;;24.57;5.27;;;6.80;99.90;;;;;;5021905;28;20203;-87
2021/01/18 08:16:41;;;;;;;22.40;6.67;;;6.80;99.90;;;;;;5009635;28;20293;-85
2021/01/18 08:19:17;;;;;;;21.47;6.23;;;6.80;99.90;;;;;;5002330;28;20203;-83
2021/01/18 08:21:58;;;;;;;26.87;7.20;;;6.80;99.90;;;;;;5010876;28;20202;-84
2021/01/18 08:24:52;;;;;;;24.10;6.63;;;6.80;99.90;;;;;;5009616;28;20326;-87
2021/01/18 08:27:38;;;;;;;22.00;5.90;;;6.80;99.90;;;;;;5009965;28;20195;-84
2021/01/18 08:30:22;;;;;;;23.93;6.93;;;6.80;99.90;;;;;;5028579;28;20206;-83
2021/01/18 08:50:20;;;;;;;18.73;4.77;;;7.10;99.90;;;;;;4828882;29;20230;-85
2021/01/18 08:52:47;;;;;;;16.93;4.53;;;7.10;99.90;;;;;;4941909;28;20200;-84
2021/01/18 08:55:42;;;;;;;14.63;5.23;;;7.20;99.90;;;;;;4979866;28;20214;-86
2021/01/18 08:58:08;;;;;;;22.60;4.87;;;7.20;99.90;;;;;;5004982;28;20234;-86
2021/01/18 09:00:42;;;;;;;24.00;7.00;;;7.20;99.90;;;;;;5027433;28;20602;-79
2021/01/18 09:03:10;;;;;;;23.80;4.87;;;7.20;99.90;;;;;;5029506;28;20889;-88
2021/01/18 09:05:38;;;;;;;17.40;4.83;;;7.20;99.90;;;;;;5030839;28;20518;-84
2021/01/18 09:08:07;;;;;;;23.90;5.37;;;7.30;99.90;;;;;;5031994;28;20273;-85
2021/01/18 09:10:35;;;;;;;16.80;5.43;;;7.30;99.90;;;;;;5032021;28;20321;-80
2021/01/18 09:13:03;;;;;;;21.03;6.90;;;7.30;99.90;;;;;;5031099;28;20226;-84
2021/01/18 09:15:30;;;;;;;25.07;6.10;;;7.30;99.90;;;;;;5011348;28;20226;-86
2021/01/18 09:17:56;;;;;;;21.97;6.17;;;7.30;99.90;;;;;;5014300;28;20202;-84
2021/01/18 09:20:23;;;;;;;26.20;6.67;;;7.30;99.90;;;;;;5012490;28;20206;-85
2021/01/18 09:22:50;;;;;;;22.20;5.53;;;7.20;99.90;;;;;;5013157;28;20218;-85
2021/01/18 09:25:17;;;;;;;24.97;6.40;;;7.30;99.90;;;;;;5012815;28;20207;-86
2021/01/18 09:27:44;;;;;;;22.77;6.57;;;7.30;99.90;;;;;;5010562;28;20710;-86
2021/01/18 09:30:15;;;;;;;20.67;7.53;;;7.30;99.90;;;;;;5012191;28;20238;-86
2021/01/18 09:32:53;;;;;;;24.30;6.77;;;7.30;99.90;;;;;;5012135;28;20211;-85
2021/01/18 09:35:20;;;;;;;27.93;6.90;;;7.30;99.90;;;;;;5012908;28;20599;-86
2021/01/18 09:37:48;;;;;;;31.10;6.50;;;7.40;99.90;;;;;;5014347;28;20254;-86
2021/01/18 09:40:17;;;;;;;25.57;6.40;;;7.40;99.90;;;;;;5014403;28;20210;-85
2021/01/18 09:42:46;;;;;;;26.47;5.87;;;7.40;99.90;;;;;;5012631;28;20204;-86
2021/01/18 09:45:13;;;;;;;24.37;6.70;;;7.40;99.90;;;;;;5013544;28;20582;-86
2021/01/18 09:47:40;;;;;;;23.47;7.57;;;7.50;99.90;;;;;;5030874;28;20570;-83
2021/01/18 09:50:08;;;;;;;20.97;5.70;;;7.60;99.90;;;;;;5030827;28;20885;-85
2021/01/18 09:52:39;;;;;;;19.67;5.63;;;7.60;99.90;;;;;;5032204;28;20198;-86
2021/01/18 09:55:10;;;;;;;22.43;5.00;;;7.60;99.90;;;;;;5032736;28;20207;-86
2021/01/18 09:57:40;;;;;;;21.03;5.70;;;7.60;99.90;;;;;;5031815;28;20466;-84
2021/01/18 10:00:10;;;;;;;16.30;5.20;;;7.60;99.90;;;;;;5030744;28;20199;-86
2021/01/18 10:02:42;;;;;;;20.30;4.57;;;7.60;99.90;;;;;;5031656;28;20213;-86
2021/01/18 10:05:09;;;;;;;16.87;4.47;;;7.70;99.90;;;;;;5032217;28;20306;-86
2021/01/18 10:07:45;;;;;;;15.90;5.17;;;7.60;99.90;;;;;;5030485;28;20249;-80
2021/01/18 10:10:13;;;;;;;21.30;5.60;;;7.60;99.90;;;;;;5031191;28;20324;-84
2021/01/18 10:12:49;;;;;;;15.87;5.40;;;7.70;99.90;;;;;;5031806;28;20833;-86
2021/01/18 10:15:23;;;;;;;21.10;5.10;;;7.70;99.90;;;;;;5031499;28;20202;-82
2021/01/18 10:17:50;;;;;;;18.87;5.77;;;7.70;99.90;;;;;;5030094;28;20305;-87
2021/01/18 10:20:23;;;;;;;18.30;5.03;;;7.70;99.90;;;;;;5032100;28;20591;-82
2021/01/18 10:22:50;;;;;;;21.03;5.53;;;7.70;99.90;;;;;;5031254;28;20206;-83
2021/01/18 10:25:17;;;;;;;18.97;5.70;;;7.70;99.90;;;;;;5030386;28;20211;-84
2021/01/18 10:27:50;;;;;;;21.13;5.13;;;7.70;99.90;;;;;;5031133;28;20226;-84
2021/01/18 10:30:20;;;;;;;19.83;4.77;;;7.70;99.90;;;;;;5031637;28;20241;-83
2021/01/18 10:32:48;;;;;;;17.20;4.60;;;7.70;99.90;;;;;;5030521;28;20916;-83
2021/01/18 10:35:31;;;;;;;22.20;5.57;;;7.70;99.90;;;;;;5030106;28;20268;-81
2021/01/18 10:38:27;;;;;;;20.60;5.47;;;7.70;99.90;;;;;;5031540;28;20202;-85
2021/01/18 10:41:02;;;;;;;16.93;5.47;;;7.70;99.90;;;;;;5031353;28;20202;-84
2021/01/18 10:43:30;;;;;;;20.37;5.23;;;7.70;99.90;;;;;;5028018;28;20210;-83
2021/01/18 10:45:57;;;;;;;15.63;4.00;;;7.70;99.90;;;;;;5025207;28;20202;-86
2021/01/18 10:48:28;;;;;;;14.37;4.20;;;7.70;99.90;;;;;;5031033;28;20326;-84
2021/01/18 10:50:59;;;;;;;25.37;4.67;;;7.70;99.90;;;;;;5028717;28;20241;-82
2021/01/18 10:53:30;;;;;;;19.20;4.47;;;7.70;99.90;;;;;;5026327;28;20211;-83
2021/01/18 10:56:14;;;;;;;19.47;4.43;;;7.70;99.90;;;;;;5028137;28;20203;-84
2021/01/18 10:58:42;;;;;;;22.07;4.63;;;7.80;99.90;;;;;;5027205;28;20290;-82
2021/01/18 11:01:10;;;;;;;16.07;4.20;;;7.80;99.90;;;;;;5028405;28;20210;-82
2021/01/18 11:03:37;;;;;;;24.03;5.23;;;7.70;99.90;;;;;;5028402;28;20230;-84
2021/01/18 11:06:14;;;;;;;18.43;6.07;;;7.80;99.90;;;;;;5028434;28;20210;-84
2021/01/18 11:08:41;;;;;;;12.73;4.27;;;7.70;99.90;;;;;;5029279;28;20222;-86
2021/01/18 11:11:18;;;;;;;13.57;3.50;;;7.70;99.90;;;;;;5029554;28;20286;-85
2021/01/18 11:13:47;;;;;;;19.07;5.47;;;7.80;99.90;;;;;;5020935;28;20261;-84
2021/01/18 11:16:15;;;;;;;14.73;5.10;;;7.80;99.90;;;;;;5009155;28;20211;-83
2021/01/18 11:18:41;;;;;;;22.03;4.43;;;7.80;99.90;;;;;;5008185;28;20210;-87
2021/01/18 11:21:08;;;;;;;23.17;5.30;;;7.90;99.90;;;;;;5005686;28;20199;-86
2021/01/18 11:23:34;;;;;;;41.87;5.97;;;7.90;99.90;;;;;;5004466;28;20218;-88
2021/01/18 11:26:01;;;;;;;19.37;4.00;;;7.90;99.90;;;;;;5004359;28;20207;-86
2021/01/18 11:28:27;;;;;;;18.60;4.43;;;8.00;99.90;;;;;;5003581;28;20227;-83
2021/01/18 11:30:57;;;;;;;16.43;4.37;;;8.00;99.90;;;;;;5006541;28;20738;-83
2021/01/18 11:33:23;;;;;;;20.77;4.77;;;8.00;99.90;;;;;;5009804;28;20199;-86
2021/01/18 11:35:49;;;;;;;16.83;4.50;;;8.10;99.90;;;;;;5009907;28;20214;-88
2021/01/18 11:38:16;;;;;;;11.93;4.03;;;8.10;99.90;;;;;;5009632;28;20207;-87
2021/01/18 11:40:43;;;;;;;17.13;5.50;;;8.10;99.90;;;;;;5010170;28;20199;-86
2021/01/18 11:43:09;;;;;;;15.50;4.90;;;8.10;99.90;;;;;;5010165;28;20298;-85
2021/01/18 11:45:36;;;;;;;17.07;4.43;;;8.10;99.90;;;;;;5009360;28;20207;-87
2021/01/18 11:48:06;;;;;;;22.17;4.30;;;8.10;99.90;;;;;;5010083;28;20220;-85
2021/01/18 11:50:32;;;;;;;22.93;6.93;;;8.20;99.90;;;;;;5009853;28;20286;-87
2021/01/18 11:52:59;;;;;;;19.57;4.43;;;8.20;99.90;;;;;;5009818;28;20484;-86
2021/01/18 11:55:26;;;;;;;14.80;3.77;;;8.20;99.90;;;;;;5010117;28;20215;-86
2021/01/18 11:57:52;;;;;;;14.00;4.67;;;8.20;99.90;;;;;;5009398;28;20207;-83
2021/01/18 12:00:21;;;;;;;18.83;4.07;;;8.10;99.90;;;;;;5010475;28;20211;-82
2021/01/18 12:02:47;;;;;;;16.00;4.43;;;8.10;99.90;;;;;;5009917;28;20997;-87
2021/01/18 12:05:15;;;;;;;17.27;4.30;;;8.10;99.90;;;;;;5009813;28;20475;-87
2021/01/18 12:07:45;;;;;;;18.53;4.63;;;8.10;99.90;;;;;;5009387;28;20203;-86
2021/01/18 12:10:12;;;;;;;14.77;4.00;;;8.10;99.90;;;;;;5008903;28;20238;-83
2021/01/18 12:12:39;;;;;;;18.57;4.73;;;8.20;99.90;;;;;;5010082;28;20707;-84
2021/01/18 12:15:07;;;;;;;14.60;4.17;;;8.10;99.90;;;;;;5009930;28;20220;-85
2021/01/18 12:17:37;;;;;;;20.73;4.93;;;8.10;99.90;;;;;;5005396;28;20214;-85
2021/01/18 12:20:04;;;;;;;16.23;4.83;;;8.10;99.90;;;;;;5004613;28;20226;-85
2021/01/18 12:22:31;;;;;;;22.67;4.47;;;8.10;99.90;;;;;;5007964;28;20261;-85
2021/01/18 12:24:58;;;;;;;21.40;4.67;;;8.10;99.90;;;;;;5027283;28;20261;-84
2021/01/18 12:27:24;;;;;;;18.97;5.07;;;8.10;99.90;;;;;;5025574;28;20207;-86
2021/01/18 12:29:50;;;;;;;15.20;4.37;;;8.10;99.90;;;;;;5018005;28;20227;-86
2021/01/18 12:32:17;;;;;;;17.07;4.43;;;8.00;99.90;;;;;;5014815;28;20210;-86
2021/01/18 12:34:43;;;;;;;16.87;3.90;;;8.00;99.90;;;;;;5023585;28;20229;-85
2021/01/18 12:37:09;;;;;;;18.83;4.37;;;8.00;99.90;;;;;;5025140;28;20199;-87
2021/01/18 12:39:36;;;;;;;26.77;6.73;;;8.00;99.90;;;;;;5027653;28;20209;-85
2021/01/18 12:42:03;;;;;;;11.27;3.63;;;8.00;99.90;;;;;;5028241;28;20213;-87
2021/01/18 12:44:30;;;;;;;12.53;3.70;;;8.00;99.90;;;;;;5027351;28;20213;-87
2021/01/18 12:46:58;;;;;;;16.67;4.10;;;8.00;99.90;;;;;;5027997;28;20206;-84
2021/01/18 12:49:24;;;;;;;18.87;4.13;;;8.00;99.90;;;;;;5027536;28;20222;-85
2021/01/18 12:51:51;;;;;;;12.40;3.47;;;8.00;99.90;;;;;;5026446;28;20708;-83
2021/01/18 12:54:18;;;;;;;14.73;3.57;;;8.00;99.90;;;;;;5027653;28;20503;-85
2021/01/18 12:56:45;;;;;;;20.23;4.47;;;8.00;99.90;;;;;;5027190;28;20210;-84
2021/01/18 12:59:12;;;;;;;10.57;3.47;;;8.00;99.90;;;;;;5027246;28;20202;-84
2021/01/18 13:01:39;;;;;;;16.67;3.77;;;8.00;99.90;;;;;;5026447;28;20207;-87
2021/01/18 13:04:06;;;;;;;17.60;4.60;;;8.00;99.90;;;;;;5028693;28;20203;-85
2021/01/18 13:06:33;;;;;;;23.30;4.67;;;8.00;99.90;;;;;;5028375;28;20306;-85
2021/01/18 13:09:00;;;;;;;13.67;3.83;;;7.90;99.90;;;;;;5028212;28;20231;-83
2021/01/18 13:11:26;;;;;;;16.50;3.63;;;8.00;99.90;;;;;;5029254;28;20202;-83
2021/01/18 13:13:54;;;;;;;15.83;3.93;;;7.90;99.90;;;;;;5028540;28;20202;-82
2021/01/18 13:16:20;;;;;;;15.00;3.47;;;7.90;99.90;;;;;;5028778;28;20249;-83
2021/01/18 13:18:47;;;;;;;9.80;3.50;;;7.90;99.90;;;;;;5028405;28;20198;-82
2021/01/18 13:21:16;;;;;;;14.30;4.27;;;7.90;99.90;;;;;;5026969;28;20202;-84
2021/01/18 13:23:44;;;;;;;13.80;3.33;;;7.90;99.90;;;;;;5028268;28;20543;-84